createdAt,value
2022-08-17T00:00:42.958Z,73.55
2022-08-17T00:01:37.860Z,72.95
2022-08-17T00:02:32.646Z,73.69
2022-08-17T00:03:32.518Z,73.38
2022-08-17T00:04:32.481Z,73.49
2022-08-17T00:05:32.496Z,73.49
2022-08-17T00:06:32.475Z,73.18
2022-08-17T00:07:32.479Z,73.49
2022-08-17T00:08:32.440Z,73.38
2022-08-17T00:09:32.454Z,74.09
2022-08-17T00:10:32.563Z,73.72
2022-08-17T00:11:32.412Z,74.13
2022-08-17T00:12:41.239Z,74.13
2022-08-17T00:13:32.383Z,73.93
2022-08-17T00:14:32.373Z,74.33
2022-08-17T00:15:32.456Z,73.82
2022-08-17T00:16:55.813Z,73.72
2022-08-17T00:17:32.340Z,74.43
2022-08-17T00:19:05.662Z,74.02
2022-08-17T00:19:32.294Z,74.13
2022-08-17T00:20:35.008Z,74.53
2022-08-17T00:22:10.627Z,74.33
2022-08-17T00:22:40.020Z,73.93
2022-08-17T00:23:32.229Z,74.84
2022-08-17T00:24:32.286Z,74.73
2022-08-17T00:25:32.214Z,73.93
2022-08-17T00:26:44.352Z,74.43
2022-08-17T00:27:32.181Z,74.53
2022-08-17T00:28:33.257Z,74.53
2022-08-17T00:29:32.173Z,74.22
2022-08-17T00:30:53.156Z,74.02
2022-08-17T00:31:32.140Z,74.22
2022-08-17T00:33:14.246Z,73.82
2022-08-17T00:33:32.100Z,74.53
2022-08-17T00:34:32.106Z,74.53
2022-08-17T00:35:32.094Z,74.02
2022-08-17T00:36:32.059Z,74.63
2022-08-17T00:37:32.043Z,74.33
2022-08-17T00:38:32.033Z,74.63
2022-08-17T00:39:32.071Z,74.84
2022-08-17T00:40:40.696Z,75.64
2022-08-17T00:41:32.018Z,75.54
2022-08-17T00:42:31.976Z,75.84
2022-08-17T00:43:31.965Z,75.78
2022-08-17T00:44:31.949Z,76.08
2022-08-17T00:45:31.964Z,76.28
2022-08-17T00:46:31.949Z,76.59
2022-08-17T00:47:31.930Z,76.59
2022-08-17T00:48:31.896Z,76.59
2022-08-17T00:49:31.898Z,76.79
2022-08-17T00:50:31.892Z,76.39
2022-08-17T00:51:31.872Z,76.08
2022-08-17T00:52:31.858Z,75.57
2022-08-17T00:53:31.822Z,75.88
2022-08-17T00:54:31.812Z,75.88
2022-08-17T00:55:31.818Z,76.08
2022-08-17T00:56:31.814Z,75.68
2022-08-17T00:57:31.763Z,76.08
2022-08-17T00:58:36.643Z,75.68
2022-08-17T00:59:31.751Z,75.27
2022-08-17T01:00:31.729Z,76.28
2022-08-17T01:01:31.815Z,76.48
2022-08-17T01:02:40.387Z,76.59
2022-08-17T01:03:31.725Z,76.59
2022-08-17T01:04:31.691Z,76.08
2022-08-17T01:05:31.695Z,76.08
2022-08-17T01:06:31.647Z,76.39
2022-08-17T01:07:31.636Z,76.32
2022-08-17T01:08:31.645Z,76.82
2022-08-17T01:09:31.665Z,76.82
2022-08-17T01:11:00.084Z,76.42
2022-08-17T01:11:31.600Z,76.72
2022-08-17T01:12:31.580Z,76.93
2022-08-17T01:13:34.451Z,77.33
2022-08-17T01:14:31.581Z,76.72
2022-08-17T01:15:31.568Z,77.13
2022-08-17T01:16:31.538Z,76.32
2022-08-17T01:17:31.536Z,76.52
2022-08-17T01:18:31.497Z,77.23
2022-08-17T01:19:31.473Z,77.33
2022-08-17T01:20:31.491Z,77.23
2022-08-17T01:21:31.474Z,76.93
2022-08-17T01:22:31.440Z,77.23
2022-08-17T01:23:31.447Z,77.03
2022-08-17T01:24:31.415Z,76.62
2022-08-17T01:25:31.420Z,76.62
2022-08-17T01:26:31.385Z,76.42
2022-08-17T01:27:31.409Z,76.32
2022-08-17T01:28:40.723Z,76.62
2022-08-17T01:29:31.347Z,76.22
2022-08-17T01:30:58.658Z,76.93
2022-08-17T01:31:31.367Z,77.23
2022-08-17T01:32:31.305Z,77.06
2022-08-17T01:33:31.314Z,76.86
2022-08-17T01:34:37.366Z,77.87
2022-08-17T01:35:31.299Z,77.77
2022-08-17T01:36:31.251Z,77.77
2022-08-17T01:37:31.266Z,77.77
2022-08-17T01:38:31.221Z,77.77
2022-08-17T01:39:31.230Z,77.87
2022-08-17T01:40:31.197Z,77.87
2022-08-17T01:41:31.172Z,78.17
2022-08-17T01:42:31.189Z,78.17
2022-08-17T01:43:31.149Z,77.37
2022-08-17T01:44:31.146Z,77.37
2022-08-17T01:45:31.142Z,77.47
2022-08-17T01:46:31.113Z,77.57
2022-08-17T01:47:31.189Z,77.37
2022-08-17T01:48:31.102Z,78.08
2022-08-17T01:49:31.100Z,78.11
2022-08-17T01:50:31.052Z,77.81
2022-08-17T01:51:31.044Z,77.61
2022-08-17T01:52:31.074Z,78.01
2022-08-17T01:53:31.005Z,78.21
2022-08-17T01:54:31.004Z,78.31
2022-08-17T01:55:31.017Z,78.42
2022-08-17T01:56:30.993Z,78.82
2022-08-17T01:57:30.959Z,78.72
2022-08-17T01:58:31.018Z,78.31
2022-08-17T01:59:30.933Z,78.21
2022-08-17T02:01:00.085Z,78.42
2022-08-17T02:01:30.958Z,78.42
2022-08-17T02:02:31.648Z,78.72
2022-08-17T02:03:30.881Z,79.02
2022-08-17T02:04:30.870Z,78.72
2022-08-17T02:05:30.883Z,78.72
2022-08-17T02:06:31.603Z,78.62
2022-08-17T02:07:30.841Z,78.92
2022-08-17T02:08:37.293Z,79.13
2022-08-17T02:09:30.830Z,78.62
2022-08-17T02:10:34.041Z,78.82
2022-08-17T02:11:30.763Z,79.02
2022-08-17T02:12:38.254Z,78.62
2022-08-17T02:13:30.754Z,78.72
2022-08-17T02:14:30.732Z,79.53
2022-08-17T02:15:30.732Z,79.22
2022-08-17T02:16:37.726Z,79.43
2022-08-17T02:17:30.698Z,79.22
2022-08-17T02:18:30.689Z,79.33
2022-08-17T02:19:30.664Z,79.57
2022-08-17T02:20:41.822Z,79.57
2022-08-17T02:21:30.669Z,80.47
2022-08-17T02:22:30.636Z,80.27
2022-08-17T02:23:30.612Z,80.58
2022-08-17T02:25:00.490Z,80.38
2022-08-17T02:25:30.609Z,80.18
2022-08-17T02:26:30.574Z,80.68
2022-08-17T02:27:30.577Z,80.68
2022-08-17T02:28:30.537Z,80.18
2022-08-17T02:29:30.518Z,79.67
2022-08-17T02:30:59.985Z,79.87
2022-08-17T02:31:30.504Z,80.38
2022-08-17T02:32:30.514Z,80.27
2022-08-17T02:33:42.568Z,79.26
2022-08-17T02:34:30.460Z,79.67
2022-08-17T02:35:30.470Z,79.46
2022-08-17T02:36:30.430Z,79.46
2022-08-17T02:37:30.452Z,79.36
2022-08-17T02:38:30.409Z,79.36
2022-08-17T02:39:30.478Z,79.16
2022-08-17T02:40:35.801Z,79.26
2022-08-17T02:41:30.391Z,79.57
2022-08-17T02:42:30.358Z,79.97
2022-08-17T02:43:30.359Z,79.36
2022-08-17T02:44:38.858Z,79.57
2022-08-17T02:45:30.311Z,79.57
2022-08-17T02:46:30.330Z,79.26
2022-08-17T02:47:30.276Z,80.07
2022-08-17T02:48:30.935Z,79.87
2022-08-17T02:49:30.248Z,79.36
2022-08-17T02:50:30.238Z,79.26
2022-08-17T02:51:30.265Z,79.87
2022-08-17T02:52:43.303Z,79.06
2022-08-17T02:53:35.810Z,80.47
2022-08-17T02:54:38.951Z,80.07
2022-08-17T02:55:30.205Z,80.38
2022-08-17T02:56:30.177Z,80.27
2022-08-17T02:57:30.146Z,80.68
2022-08-17T02:58:35.254Z,80.72
2022-08-17T02:59:30.161Z,81.12
2022-08-17T03:00:30.165Z,81.02
2022-08-17T03:01:30.167Z,81.12
2022-08-17T03:02:30.082Z,81.02
2022-08-17T03:03:30.075Z,81.12
2022-08-17T03:04:30.074Z,80.92
2022-08-17T03:05:30.045Z,81.02
2022-08-17T03:06:30.063Z,80.82
2022-08-17T03:07:30.019Z,80.62
2022-08-17T03:08:30.000Z,80.82
2022-08-17T03:09:29.977Z,80.72
2022-08-17T03:10:29.977Z,80.21
2022-08-17T03:11:29.985Z,80.52
2022-08-17T03:12:29.952Z,80.52
2022-08-17T03:13:29.932Z,80.11
2022-08-17T03:14:29.921Z,80.62
2022-08-17T03:15:29.908Z,80.72
2022-08-17T03:16:29.913Z,80.72
2022-08-17T03:17:29.908Z,80.82
2022-08-17T03:18:29.878Z,80.72
2022-08-17T03:19:29.864Z,80.72
2022-08-17T03:20:29.869Z,80.82
2022-08-17T03:21:29.851Z,80.52
2022-08-17T03:22:36.519Z,80.31
2022-08-17T03:23:30.340Z,80.52
2022-08-17T03:24:29.807Z,80.82
2022-08-17T03:25:29.774Z,80.41
2022-08-17T03:26:29.974Z,80.31
2022-08-17T03:27:29.741Z,81.32
2022-08-17T03:28:29.777Z,80.72
2022-08-17T03:29:29.722Z,80.52
2022-08-17T03:30:29.700Z,80.72
2022-08-17T03:31:29.694Z,81.73
2022-08-17T03:32:29.675Z,81.63
2022-08-17T03:33:29.683Z,81.77
2022-08-17T03:34:29.658Z,81.67
2022-08-17T03:35:29.629Z,81.16
2022-08-17T03:36:29.621Z,81.52
2022-08-17T03:37:29.607Z,81.52
2022-08-17T03:38:29.616Z,81.52
2022-08-17T03:39:29.610Z,81.02
2022-08-17T03:40:34.449Z,81.12
2022-08-17T03:41:29.554Z,81.12
2022-08-17T03:42:31.261Z,80.82
2022-08-17T03:43:29.542Z,80.92
2022-08-17T03:44:29.534Z,80.82
2022-08-17T03:45:29.499Z,81.23
2022-08-17T03:46:35.096Z,81.02
2022-08-17T03:47:29.480Z,80.62
2022-08-17T03:48:29.460Z,81.23
2022-08-17T03:49:29.471Z,81.43
2022-08-17T03:50:29.431Z,81.12
2022-08-17T03:51:29.445Z,80.82
2022-08-17T03:52:29.406Z,81.12
2022-08-17T03:53:29.392Z,80.62
2022-08-17T03:54:29.385Z,81.63
2022-08-17T03:55:30.756Z,82.07
2022-08-17T03:56:29.354Z,82.07
2022-08-17T03:57:29.347Z,81.37
2022-08-17T03:58:29.322Z,81.57
2022-08-17T03:59:29.317Z,80.96
2022-08-17T04:00:29.359Z,80.76
2022-08-17T04:01:29.344Z,81.77
2022-08-17T04:02:29.297Z,81.57
2022-08-17T04:03:29.278Z,81.06
2022-08-17T04:04:29.240Z,80.96
2022-08-17T04:05:29.276Z,80.86
2022-08-17T04:06:29.220Z,80.76
2022-08-17T04:07:29.212Z,80.86
2022-08-17T04:08:29.189Z,81.26
2022-08-17T04:09:29.213Z,81.57
2022-08-17T04:10:29.166Z,82.28
2022-08-17T04:11:29.150Z,82.48
2022-08-17T04:12:29.155Z,82.48
2022-08-17T04:13:29.164Z,82.28
2022-08-17T04:14:29.132Z,82.07
2022-08-17T04:15:29.094Z,82.38
2022-08-17T04:16:29.082Z,82.28
2022-08-17T04:17:29.088Z,81.46
2022-08-17T04:18:29.054Z,81.46
2022-08-17T04:19:29.037Z,81.67
2022-08-17T04:20:29.064Z,81.46
2022-08-17T04:21:29.015Z,81.87
2022-08-17T04:22:30.894Z,81.57
2022-08-17T04:23:28.996Z,81.87
2022-08-17T04:24:28.995Z,81.67
2022-08-17T04:25:29.002Z,81.77
2022-08-17T04:26:52.697Z,82.17
2022-08-17T04:27:28.946Z,82.17
2022-08-17T04:28:28.927Z,82.58
2022-08-17T04:29:28.913Z,82.07
2022-08-17T04:30:28.939Z,82.28
2022-08-17T04:31:28.879Z,82.28
2022-08-17T04:33:03.746Z,82.07
2022-08-17T04:33:28.894Z,82.38
2022-08-17T04:34:28.831Z,82.17
2022-08-17T04:35:28.870Z,82.48
2022-08-17T04:36:28.821Z,82.38
2022-08-17T04:37:28.803Z,82.38
2022-08-17T04:38:28.794Z,82.48
2022-08-17T04:39:28.813Z,82.38
2022-08-17T04:40:28.800Z,82.78
2022-08-17T04:41:28.748Z,82.98
2022-08-17T04:42:28.744Z,83.29
2022-08-17T04:43:28.735Z,83.43
2022-08-17T04:44:37.703Z,83.23
2022-08-17T04:45:32.324Z,83.23
2022-08-17T04:46:28.699Z,83.03
2022-08-17T04:47:28.742Z,83.12
2022-08-17T04:48:35.267Z,83.59
2022-08-17T04:49:28.653Z,83.49
2022-08-17T04:50:28.635Z,83.29
2022-08-17T04:51:28.625Z,83.29
2022-08-17T04:52:32.295Z,83.29
2022-08-17T04:53:28.626Z,83.18
2022-08-17T04:54:28.574Z,82.78
2022-08-17T04:55:28.574Z,82.68
2022-08-17T04:56:28.566Z,82.48
2022-08-17T04:57:28.547Z,82.48
2022-08-17T04:58:28.528Z,82.38
2022-08-17T04:59:28.506Z,83.18
2022-08-17T05:00:28.502Z,82.78
2022-08-17T05:01:28.614Z,82.34
2022-08-17T05:02:28.478Z,82.64
2022-08-17T05:03:28.461Z,82.34
2022-08-17T05:04:33.879Z,81.83
2022-08-17T05:05:28.442Z,82.34
2022-08-17T05:06:28.448Z,82.54
2022-08-17T05:07:31.569Z,82.14
2022-08-17T05:08:28.387Z,82.54
2022-08-17T05:09:28.419Z,82.54
2022-08-17T05:10:28.362Z,82.14
2022-08-17T05:11:28.346Z,82.34
2022-08-17T05:12:28.349Z,82.34
2022-08-17T05:13:28.321Z,82.64
2022-08-17T05:14:33.627Z,82.64
2022-08-17T05:15:28.332Z,82.84
2022-08-17T05:16:28.277Z,82.84
2022-08-17T05:17:28.273Z,82.34
2022-08-17T05:18:28.258Z,82.54
2022-08-17T05:19:28.245Z,82.34
2022-08-17T05:20:28.272Z,82.34
2022-08-17T05:21:28.238Z,82.24
2022-08-17T05:22:28.191Z,82.84
2022-08-17T05:23:34.308Z,82.44
2022-08-17T05:24:39.863Z,82.64
2022-08-17T05:25:28.175Z,82.54
2022-08-17T05:26:28.799Z,82.54
2022-08-17T05:27:30.827Z,82.81
2022-08-17T05:28:28.152Z,82.90
2022-08-17T05:29:35.284Z,82.50
2022-08-17T05:30:28.106Z,82.60
2022-08-17T05:31:28.137Z,82.81
2022-08-17T05:32:39.145Z,82.50
2022-08-17T05:33:28.081Z,82.10
2022-08-17T05:34:28.035Z,82.10
2022-08-17T05:35:28.081Z,82.30
2022-08-17T05:36:37.844Z,82.30
2022-08-17T05:37:28.018Z,81.90
2022-08-17T05:38:27.987Z,82.06
2022-08-17T05:39:28.016Z,82.06
2022-08-17T05:40:27.992Z,81.76
2022-08-17T05:41:27.957Z,82.16
2022-08-17T05:42:27.946Z,81.76
2022-08-17T05:43:27.925Z,82.02
2022-08-17T05:44:27.915Z,81.82
2022-08-17T05:45:54.888Z,81.71
2022-08-17T05:46:27.920Z,81.62
2022-08-17T05:47:27.872Z,81.41
2022-08-17T05:48:35.554Z,81.62
2022-08-17T05:49:27.850Z,81.37
2022-08-17T05:50:29.874Z,81.07
2022-08-17T05:51:27.827Z,81.37
2022-08-17T05:52:27.814Z,81.78
2022-08-17T05:53:27.791Z,81.17
2022-08-17T05:54:27.776Z,80.97
2022-08-17T05:55:27.794Z,79.92
2022-08-17T05:56:29.781Z,80.22
2022-08-17T05:57:27.734Z,79.82
2022-08-17T05:58:27.719Z,79.92
2022-08-17T05:59:27.718Z,80.43
2022-08-17T06:00:30.818Z,80.49
2022-08-17T06:01:27.739Z,80.69
2022-08-17T06:02:27.675Z,80.99
2022-08-17T06:03:27.685Z,80.90
2022-08-17T06:04:27.635Z,80.59
2022-08-17T06:05:27.637Z,80.59
2022-08-17T06:06:31.313Z,80.59
2022-08-17T06:07:27.599Z,80.59
2022-08-17T06:08:27.652Z,81.05
2022-08-17T06:09:32.980Z,80.55
2022-08-17T06:10:27.628Z,80.76
2022-08-17T06:11:27.543Z,80.21
2022-08-17T06:12:27.566Z,80.21
2022-08-17T06:13:27.550Z,79.71
2022-08-17T06:14:27.506Z,79.36
2022-08-17T06:15:27.500Z,79.27
2022-08-17T06:16:34.383Z,79.06
2022-08-17T06:17:27.475Z,79.06
2022-08-17T06:18:27.462Z,78.06
2022-08-17T06:19:27.458Z,77.72
2022-08-17T06:20:27.510Z,77.51
2022-08-17T06:21:32.025Z,77.08
2022-08-17T06:22:27.412Z,77.38
2022-08-17T06:23:27.420Z,76.23
2022-08-17T06:24:27.373Z,75.90
2022-08-17T06:25:27.384Z,75.35
2022-08-17T06:26:30.433Z,73.98
2022-08-17T06:27:27.342Z,71.47
2022-08-17T06:28:27.414Z,68.69
2022-08-17T06:29:27.295Z,65.45
2022-08-17T06:30:27.461Z,62.53
2022-08-17T06:31:27.303Z,59.32
2022-08-17T06:32:27.278Z,57.12
2022-08-17T06:33:27.265Z,56.04
2022-08-17T06:34:27.230Z,53.91
2022-08-17T06:35:31.672Z,51.47
2022-08-17T06:36:27.214Z,51.03
2022-08-17T06:37:27.197Z,50.09
2022-08-17T06:38:38.306Z,48.18
2022-08-17T06:39:27.296Z,47.37
2022-08-17T06:40:27.264Z,48.11
2022-08-17T06:41:27.152Z,47.13
2022-08-17T06:43:02.887Z,47.52
2022-08-17T06:43:27.127Z,48.31
2022-08-17T06:44:43.492Z,48.03
2022-08-17T06:45:27.107Z,49.69
2022-08-17T06:46:27.075Z,50.13
2022-08-17T06:47:28.898Z,50.78
2022-08-17T06:48:27.047Z,51.32
2022-08-17T06:49:27.085Z,53.14
2022-08-17T06:50:27.132Z,54.78
2022-08-17T06:51:27.009Z,55.43
2022-08-17T06:52:45.882Z,56.35
2022-08-17T06:53:27.002Z,56.51
2022-08-17T06:54:26.997Z,57.73
2022-08-17T06:55:26.956Z,58.85
2022-08-17T06:56:26.948Z,59.88
2022-08-17T06:57:26.931Z,60.50
2022-08-17T06:58:28.945Z,59.83
2022-08-17T06:59:36.347Z,59.97
2022-08-17T07:00:27.020Z,61.07
2022-08-17T07:01:27.026Z,60.89
2022-08-17T07:02:29.162Z,61.99
2022-08-17T07:03:26.860Z,62.59
2022-08-17T07:04:26.826Z,62.99
2022-08-17T07:05:26.847Z,62.02
2022-08-17T07:06:26.800Z,62.12
2022-08-17T07:07:26.846Z,62.59
2022-08-17T07:08:31.204Z,63.29
2022-08-17T07:09:26.778Z,62.99
2022-08-17T07:10:26.836Z,63.09
2022-08-17T07:11:26.773Z,62.59
2022-08-17T07:12:26.758Z,62.89
2022-08-17T07:13:26.717Z,62.56
2022-08-17T07:14:26.704Z,61.26
2022-08-17T07:15:26.708Z,60.93
2022-08-17T07:16:26.665Z,58.94
2022-08-17T07:17:47.209Z,58.21
2022-08-17T07:18:26.655Z,58.01
2022-08-17T07:19:26.651Z,57.78
2022-08-17T07:20:26.653Z,58.18
2022-08-17T07:21:26.914Z,58.08
2022-08-17T07:22:26.618Z,58.38
2022-08-17T07:23:26.578Z,57.39
2022-08-17T07:24:29.806Z,56.96
2022-08-17T07:25:26.556Z,55.56
2022-08-17T07:26:26.535Z,56.85
2022-08-17T07:27:26.547Z,56.26
2022-08-17T07:28:26.515Z,56.33
2022-08-17T07:29:26.495Z,56.13
2022-08-17T07:30:26.512Z,56.76
2022-08-17T07:31:26.469Z,57.46
2022-08-17T07:32:26.472Z,57.65
2022-08-17T07:33:26.470Z,58.25
2022-08-17T07:34:26.449Z,58.95
2022-08-17T07:35:38.032Z,59.65
2022-08-17T07:36:29.797Z,60.05
2022-08-17T07:37:26.395Z,60.05
2022-08-17T07:38:27.137Z,59.45
2022-08-17T07:39:26.387Z,59.05
2022-08-17T07:40:26.486Z,59.35
2022-08-17T07:41:26.340Z,58.25
2022-08-17T07:42:26.324Z,58.15
2022-08-17T07:43:26.316Z,58.75
2022-08-17T07:44:26.294Z,58.15
2022-08-17T07:45:26.306Z,56.66
2022-08-17T07:46:26.293Z,57.06
2022-08-17T07:47:26.264Z,57.63
2022-08-17T07:48:26.264Z,57.82
2022-08-17T07:49:26.262Z,56.73
2022-08-17T07:50:26.280Z,57.03
2022-08-17T07:51:26.204Z,56.83
2022-08-17T07:52:50.501Z,57.53
2022-08-17T07:53:26.188Z,57.33
2022-08-17T07:54:26.196Z,58.20
2022-08-17T07:55:26.161Z,58.70
2022-08-17T07:56:26.171Z,58.00
2022-08-17T07:57:29.886Z,57.90
2022-08-17T07:58:26.110Z,56.90
2022-08-17T07:59:27.185Z,57.60
2022-08-17T08:00:32.019Z,58.59
2022-08-17T08:01:26.153Z,58.67
2022-08-17T08:02:26.452Z,59.06
2022-08-17T08:03:26.345Z,58.57
2022-08-17T08:04:59.107Z,59.66
2022-08-17T08:05:48.617Z,58.67
2022-08-17T08:06:26.046Z,58.67
2022-08-17T08:07:25.994Z,57.64
2022-08-17T08:08:26.036Z,58.44
2022-08-17T08:09:25.993Z,56.75
2022-08-17T08:10:25.989Z,58.24
2022-08-17T08:11:25.944Z,58.04
2022-08-17T08:12:25.924Z,56.75
2022-08-17T08:13:25.953Z,55.93
2022-08-17T08:14:28.664Z,55.63
2022-08-17T08:15:25.893Z,56.12
2022-08-17T08:16:25.875Z,57.29
2022-08-17T08:17:25.884Z,57.29
2022-08-17T08:18:39.701Z,56.79
2022-08-17T08:19:25.847Z,55.40
2022-08-17T08:20:51.105Z,56.49
2022-08-17T08:21:25.811Z,56.20
2022-08-17T08:22:25.811Z,56.49
2022-08-17T08:23:25.827Z,54.68
2022-08-17T08:24:25.764Z,53.88
2022-08-17T08:25:25.765Z,55.38
2022-08-17T08:26:25.740Z,55.97
2022-08-17T08:27:25.758Z,55.57
2022-08-17T08:28:25.709Z,55.57
2022-08-17T08:29:25.701Z,54.25
2022-08-17T08:30:25.684Z,55.05
2022-08-17T08:31:25.684Z,54.35
2022-08-17T08:32:25.710Z,54.55
2022-08-17T08:33:25.638Z,55.05
2022-08-17T08:34:53.395Z,54.43
2022-08-17T08:35:25.628Z,55.22
2022-08-17T08:36:56.871Z,55.72
2022-08-17T08:37:33.883Z,54.63
2022-08-17T08:38:25.623Z,55.42
2022-08-17T08:39:25.614Z,54.93
2022-08-17T08:40:25.562Z,52.51
2022-08-17T08:41:25.550Z,50.63
2022-08-17T08:42:25.530Z,54.21
2022-08-17T08:43:25.524Z,53.41
2022-08-17T08:45:00.377Z,52.59
2022-08-17T08:45:25.494Z,52.19
2022-08-17T08:46:25.487Z,54.38
2022-08-17T08:47:25.452Z,52.56
2022-08-17T08:48:53.305Z,52.66
2022-08-17T08:49:45.143Z,53.16
2022-08-17T08:50:37.329Z,53.36
2022-08-17T08:51:25.414Z,53.66
2022-08-17T08:52:25.439Z,52.26
2022-08-17T08:53:25.373Z,52.56
2022-08-17T08:54:26.860Z,53.53
2022-08-17T08:55:25.352Z,53.83
2022-08-17T08:56:25.369Z,53.43
2022-08-17T08:57:30.891Z,54.49
2022-08-17T08:58:31.479Z,53.41
2022-08-17T08:59:25.305Z,53.41
2022-08-17T09:00:25.290Z,53.60
2022-08-17T09:01:25.315Z,52.71
2022-08-17T09:02:25.262Z,52.49
2022-08-17T09:03:43.824Z,53.97
2022-08-17T09:04:25.911Z,52.69
2022-08-17T09:05:25.215Z,53.28
2022-08-17T09:06:32.095Z,52.17
2022-08-17T09:07:25.229Z,52.66
2022-08-17T09:08:25.180Z,52.26
2022-08-17T09:09:25.175Z,53.06
2022-08-17T09:10:25.168Z,53.16
2022-08-17T09:11:25.137Z,52.66
2022-08-17T09:12:25.162Z,51.84
2022-08-17T09:13:25.106Z,52.24
2022-08-17T09:14:28.715Z,52.14
2022-08-17T09:15:25.094Z,52.44
2022-08-17T09:16:25.090Z,51.13
2022-08-17T09:17:25.093Z,52.12
2022-08-17T09:19:03.583Z,50.43
2022-08-17T09:19:25.037Z,50.31
2022-08-17T09:20:27.585Z,50.31
2022-08-17T09:21:25.015Z,49.99
2022-08-17T09:22:24.993Z,49.30
2022-08-17T09:23:24.986Z,49.69
2022-08-17T09:24:24.971Z,49.96
2022-08-17T09:25:24.991Z,49.48
2022-08-17T09:26:24.948Z,49.77
2022-08-17T09:27:24.929Z,49.37
2022-08-17T09:28:24.926Z,49.15
2022-08-17T09:29:24.903Z,48.56
2022-08-17T09:30:24.925Z,48.56
2022-08-17T09:31:26.768Z,49.05
2022-08-17T09:32:24.869Z,48.75
2022-08-17T09:33:24.849Z,48.75
2022-08-17T09:34:29.588Z,50.04
2022-08-17T09:35:24.828Z,50.21
2022-08-17T09:36:24.846Z,48.63
2022-08-17T09:37:24.791Z,49.33
2022-08-17T09:38:28.018Z,49.52
2022-08-17T09:39:24.846Z,49.20
2022-08-17T09:40:24.788Z,48.12
2022-08-17T09:41:24.755Z,48.91
2022-08-17T09:42:24.758Z,48.91
2022-08-17T09:43:24.744Z,49.60
2022-08-17T09:44:24.702Z,49.08
2022-08-17T09:45:24.731Z,48.88
2022-08-17T09:46:24.685Z,49.97
2022-08-17T09:47:24.658Z,50.04
2022-08-17T09:48:24.665Z,49.16
2022-08-17T09:49:25.328Z,49.75
2022-08-17T09:50:55.384Z,49.13
2022-08-17T09:51:24.615Z,51.30
2022-08-17T09:52:24.644Z,50.59
2022-08-17T09:53:24.614Z,47.83
2022-08-17T09:54:38.676Z,47.83
2022-08-17T09:55:24.565Z,47.34
2022-08-17T09:56:24.546Z,47.92
2022-08-17T09:57:32.463Z,47.83
2022-08-17T09:58:25.665Z,47.44
2022-08-17T09:59:24.580Z,47.63
2022-08-17T10:00:24.533Z,48.42
2022-08-17T10:01:24.556Z,49.77
2022-08-17T10:02:24.468Z,48.69
2022-08-17T10:03:24.463Z,47.51
2022-08-17T10:04:29.345Z,48.08
2022-08-17T10:05:24.437Z,47.98
2022-08-17T10:06:24.623Z,48.25
2022-08-17T10:07:24.408Z,48.25
2022-08-17T10:08:24.404Z,46.78
2022-08-17T10:09:24.410Z,46.58
2022-08-17T10:10:24.371Z,45.18
2022-08-17T10:11:33.249Z,45.38
2022-08-17T10:12:29.880Z,44.69
2022-08-17T10:13:24.347Z,44.49
2022-08-17T10:14:36.886Z,45.87
2022-08-17T10:15:24.330Z,44.89
2022-08-17T10:16:24.298Z,45.18
2022-08-17T10:17:24.277Z,44.69
2022-08-17T10:18:24.266Z,46.17
2022-08-17T10:19:24.258Z,44.98
2022-08-17T10:20:24.269Z,45.48
2022-08-17T10:21:24.232Z,45.16
2022-08-17T10:22:34.701Z,44.87
2022-08-17T10:23:24.235Z,44.67
2022-08-17T10:24:24.204Z,44.47
2022-08-17T10:25:33.309Z,44.08
2022-08-17T10:26:24.177Z,45.45
2022-08-17T10:27:24.164Z,44.87
2022-08-17T10:28:28.758Z,45.95
2022-08-17T10:29:24.160Z,44.77
2022-08-17T10:30:24.143Z,43.69
2022-08-17T10:31:39.492Z,43.39
2022-08-17T10:32:24.119Z,43.29
2022-08-17T10:33:24.068Z,43.59
2022-08-17T10:34:24.062Z,43.88
2022-08-17T10:35:24.076Z,43.79
2022-08-17T10:36:24.033Z,44.26
2022-08-17T10:37:24.017Z,43.08
2022-08-17T10:38:24.612Z,43.47
2022-08-17T10:39:23.997Z,42.88
2022-08-17T10:40:24.005Z,43.86
2022-08-17T10:41:23.995Z,43.84
2022-08-17T10:42:32.384Z,42.96
2022-08-17T10:43:24.638Z,41.98
2022-08-17T10:44:38.380Z,42.08
2022-08-17T10:45:23.935Z,42.08
2022-08-17T10:46:31.168Z,42.15
2022-08-17T10:47:23.902Z,41.37
2022-08-17T10:48:23.868Z,41.37
2022-08-17T10:49:23.888Z,41.96
2022-08-17T10:50:23.845Z,42.84
2022-08-17T10:51:23.870Z,41.55
2022-08-17T10:52:24.986Z,41.74
2022-08-17T10:53:23.816Z,41.15
2022-08-17T10:54:23.804Z,42.13
2022-08-17T10:55:23.810Z,41.52
2022-08-17T10:56:23.779Z,40.06
2022-08-17T10:57:23.774Z,40.25
2022-08-17T10:58:23.777Z,39.96
2022-08-17T10:59:23.753Z,40.74
2022-08-17T11:00:27.548Z,39.66
2022-08-17T11:01:23.829Z,40.64
2022-08-17T11:02:23.704Z,41.42
2022-08-17T11:03:23.730Z,41.52
2022-08-17T11:04:23.684Z,40.74
2022-08-17T11:05:23.665Z,42.21
2022-08-17T11:06:23.663Z,41.23
2022-08-17T11:07:23.666Z,42.58
2022-08-17T11:08:23.624Z,41.60
2022-08-17T11:09:23.641Z,39.53
2022-08-17T11:10:23.598Z,39.04
2022-08-17T11:11:23.585Z,39.62
2022-08-17T11:12:23.604Z,39.23
2022-08-17T11:13:23.553Z,38.75
2022-08-17T11:14:23.564Z,38.76
2022-08-17T11:15:23.541Z,38.28
2022-08-17T11:16:23.529Z,38.67
2022-08-17T11:17:23.540Z,39.27
2022-08-17T11:18:23.506Z,39.47
2022-08-17T11:19:23.565Z,39.39
2022-08-17T11:20:24.047Z,38.90
2022-08-17T11:21:23.462Z,39.09
2022-08-17T11:22:23.489Z,39.29
2022-08-17T11:23:23.448Z,39.80
2022-08-17T11:24:23.429Z,39.61
2022-08-17T11:25:23.438Z,39.70
2022-08-17T11:26:23.397Z,39.80
2022-08-17T11:27:23.394Z,41.27
2022-08-17T11:28:23.375Z,40.98
2022-08-17T11:29:24.770Z,41.27
2022-08-17T11:30:23.354Z,40.08
2022-08-17T11:31:23.337Z,39.88
2022-08-17T11:32:23.335Z,41.05
2022-08-17T11:33:23.342Z,40.74
2022-08-17T11:34:23.333Z,40.64
2022-08-17T11:35:23.276Z,40.53
2022-08-17T11:36:23.272Z,40.33
2022-08-17T11:37:23.256Z,38.55
2022-08-17T11:38:23.257Z,39.43
2022-08-17T11:39:23.349Z,38.94
2022-08-17T11:40:23.230Z,39.62
2022-08-17T11:41:23.212Z,39.82
2022-08-17T11:42:23.191Z,39.22
2022-08-17T11:43:25.415Z,39.02
2022-08-17T11:44:23.195Z,39.20
2022-08-17T11:45:31.809Z,40.27
2022-08-17T11:46:23.181Z,38.98
2022-08-17T11:47:23.135Z,39.75
2022-08-17T11:48:30.592Z,37.99
2022-08-17T11:49:23.107Z,37.50
2022-08-17T11:50:27.203Z,37.96
2022-08-17T11:51:23.083Z,37.67
2022-08-17T11:52:23.069Z,36.90
2022-08-17T11:53:23.054Z,37.46
2022-08-17T11:54:32.921Z,36.29
2022-08-17T11:55:34.976Z,36.10
2022-08-17T11:56:23.051Z,35.90
2022-08-17T11:57:23.027Z,36.68
2022-08-17T11:58:23.041Z,38.43
2022-08-17T11:59:22.972Z,37.73
2022-08-17T12:00:22.967Z,36.08
2022-08-17T12:01:23.010Z,35.78
2022-08-17T12:02:22.946Z,35.88
2022-08-17T12:03:23.030Z,35.20
2022-08-17T12:04:23.004Z,35.00
2022-08-17T12:05:22.916Z,35.78
2022-08-17T12:06:22.945Z,36.86
2022-08-17T12:07:22.879Z,36.37
2022-08-17T12:08:22.877Z,36.00
2022-08-17T12:09:22.850Z,36.47
2022-08-17T12:10:22.906Z,35.78
2022-08-17T12:12:10.987Z,36.47
2022-08-17T12:12:22.839Z,36.35
2022-08-17T12:13:22.810Z,35.86
2022-08-17T12:14:39.873Z,35.36
2022-08-17T12:15:22.824Z,35.26
2022-08-17T12:16:22.808Z,35.46
2022-08-17T12:17:41.206Z,36.43
2022-08-17T12:18:22.789Z,35.94
2022-08-17T12:19:22.733Z,35.55
2022-08-17T12:20:22.731Z,34.56
2022-08-17T12:21:23.126Z,34.56
2022-08-17T12:22:22.713Z,35.15
2022-08-17T12:23:22.709Z,35.26
2022-08-17T12:24:22.681Z,34.37
2022-08-17T12:25:22.669Z,33.39
2022-08-17T12:26:22.669Z,33.78
2022-08-17T12:27:47.604Z,34.78
2022-08-17T12:28:23.212Z,34.29
2022-08-17T12:29:35.619Z,35.26
2022-08-17T12:30:22.611Z,34.19
2022-08-17T12:31:22.623Z,33.41
2022-08-17T12:32:22.584Z,33.70
2022-08-17T12:33:25.664Z,33.51
2022-08-17T12:34:22.565Z,33.90
2022-08-17T12:35:22.542Z,34.69
2022-08-17T12:36:22.568Z,34.11
2022-08-17T12:37:22.530Z,34.01
2022-08-17T12:38:32.632Z,34.21
2022-08-17T12:39:22.528Z,34.40
2022-08-17T12:40:22.478Z,34.99
2022-08-17T12:41:22.507Z,34.69
2022-08-17T12:42:22.494Z,35.08
2022-08-17T12:43:22.431Z,34.97
2022-08-17T12:44:22.440Z,34.68
2022-08-17T12:45:22.407Z,34.09
2022-08-17T12:46:22.414Z,34.29
2022-08-17T12:47:23.246Z,34.68
2022-08-17T12:48:22.386Z,35.05
2022-08-17T12:49:22.374Z,34.95
2022-08-17T12:50:28.518Z,35.42
2022-08-17T12:51:22.352Z,33.38
2022-08-17T12:52:22.355Z,33.28